createdAt,value
2023-01-09T00:00:51.948Z,94858.00
2023-01-09T00:03:18.343Z,94848.56
2023-01-09T00:05:44.651Z,94845.63
2023-01-09T00:08:10.952Z,94840.69
2023-01-09T00:10:37.267Z,94839.31
2023-01-09T00:13:03.581Z,94855.34
2023-01-09T00:15:29.880Z,94859.97
2023-01-09T00:17:56.191Z,94864.75
2023-01-09T00:20:22.504Z,94856.63
2023-01-09T00:22:48.790Z,94842.25
2023-01-09T00:25:15.118Z,94848.94
2023-01-09T00:27:41.439Z,94841.03
2023-01-09T00:30:07.762Z,94852.59
2023-01-09T00:32:34.066Z,94852.28
2023-01-09T00:35:00.383Z,94846.47
2023-01-09T00:37:26.698Z,94856.81
2023-01-09T00:39:53.010Z,94863.16
2023-01-09T00:42:19.341Z,94862.19
2023-01-09T00:44:45.625Z,94862.75
2023-01-09T00:47:11.928Z,94882.50
2023-01-09T00:49:38.238Z,94879.72
2023-01-09T00:52:04.533Z,94876.28
2023-01-09T00:54:30.850Z,94898.19
2023-01-09T00:56:57.165Z,94904.25
2023-01-09T00:59:23.445Z,94895.88
2023-01-09T01:01:49.977Z,94899.63
2023-01-09T01:04:16.386Z,94915.66
2023-01-09T01:06:42.679Z,94931.88
2023-01-09T01:09:09.033Z,94933.13
2023-01-09T01:11:35.345Z,94931.81
2023-01-09T01:14:01.687Z,94957.97
2023-01-09T01:16:28.012Z,94953.97
2023-01-09T01:18:54.317Z,94954.81
2023-01-09T01:21:20.609Z,94954.81
2023-01-09T01:23:46.923Z,94929.34
2023-01-09T01:26:13.246Z,94959.59
2023-01-09T01:28:39.584Z,94953.81
2023-01-09T01:31:05.966Z,94963.00
2023-01-09T01:33:32.320Z,94922.91
2023-01-09T01:35:58.604Z,94858.72
2023-01-09T01:38:24.913Z,94852.28
2023-01-09T01:40:51.208Z,94846.88
2023-01-09T01:43:17.495Z,94841.19
2023-01-09T01:45:43.888Z,94866.78
2023-01-09T01:48:10.215Z,94916.06
2023-01-09T01:50:36.504Z,94891.91
2023-01-09T01:53:02.806Z,94954.06
2023-01-09T01:55:29.091Z,94904.31
2023-01-09T01:57:55.409Z,94957.50
2023-01-09T02:00:21.720Z,94971.34
2023-01-09T02:02:48.057Z,94968.91
2023-01-09T02:05:14.390Z,94995.50
2023-01-09T02:07:40.697Z,95017.56
2023-01-09T02:10:06.974Z,95016.13
2023-01-09T02:12:33.295Z,95018.91
2023-01-09T02:14:59.633Z,95050.59
2023-01-09T02:17:25.928Z,95064.47
2023-01-09T02:19:52.223Z,95076.09
2023-01-09T02:22:18.529Z,95069.56
2023-01-09T02:24:44.813Z,95103.72
2023-01-09T02:27:11.108Z,95100.38
2023-01-09T02:29:37.419Z,95116.25
2023-01-09T02:32:03.722Z,95126.19
2023-01-09T02:34:30.008Z,95118.97
2023-01-09T02:36:56.324Z,95150.88
2023-01-09T02:39:22.617Z,95146.50
2023-01-09T02:41:48.910Z,95167.69
2023-01-09T02:44:15.226Z,95175.69
2023-01-09T02:46:41.536Z,95197.78
2023-01-09T02:49:07.837Z,95183.59
2023-01-09T02:51:34.159Z,95208.19
2023-01-09T02:54:00.467Z,95218.59
2023-01-09T02:56:26.746Z,95244.50
2023-01-09T02:58:53.057Z,95256.22
2023-01-09T03:01:19.477Z,95254.44
2023-01-09T03:03:45.790Z,95258.06
2023-01-09T03:06:12.206Z,95256.31
2023-01-09T03:08:38.501Z,95278.00
2023-01-09T03:11:04.815Z,95283.53
2023-01-09T03:13:31.158Z,95268.47
2023-01-09T03:15:57.469Z,95267.88
2023-01-09T03:18:23.757Z,95274.41
2023-01-09T03:20:50.117Z,95298.94
2023-01-09T03:23:16.402Z,95303.56
2023-01-09T03:25:42.686Z,95311.41
2023-01-09T03:28:08.993Z,95313.16
2023-01-09T03:30:35.306Z,95328.56
2023-01-09T03:33:01.622Z,95320.16
2023-01-09T03:35:27.933Z,95340.84
2023-01-09T03:37:54.233Z,95335.50
2023-01-09T03:40:20.531Z,95354.50
2023-01-09T03:42:46.850Z,95365.69
2023-01-09T03:45:13.175Z,95378.50
2023-01-09T03:47:39.474Z,95383.63
2023-01-09T03:50:05.777Z,95386.63
2023-01-09T03:52:32.066Z,95387.59
2023-01-09T03:54:58.349Z,95395.53
2023-01-09T03:57:24.655Z,95399.09
2023-01-09T03:59:50.976Z,95409.22
2023-01-09T04:02:17.371Z,95399.75
2023-01-09T04:04:43.719Z,95425.53
2023-01-09T04:07:10.010Z,95417.97
2023-01-09T04:09:36.304Z,95421.09
2023-01-09T04:12:02.614Z,95431.28
2023-01-09T04:14:28.910Z,95436.75
2023-01-09T04:16:55.209Z,95437.03
2023-01-09T04:19:21.527Z,95451.03
2023-01-09T04:21:47.824Z,95451.19
2023-01-09T04:24:14.123Z,95455.84
2023-01-09T04:26:40.446Z,95455.50
2023-01-09T04:29:06.743Z,95455.22
2023-01-09T04:31:33.101Z,95458.09
2023-01-09T04:33:59.415Z,95458.44
2023-01-09T04:36:25.703Z,95469.00
2023-01-09T04:38:51.999Z,95470.97
2023-01-09T04:41:18.353Z,95464.25
2023-01-09T04:43:44.650Z,95470.28
2023-01-09T04:46:10.976Z,95462.19
2023-01-09T04:48:37.299Z,95485.81
2023-01-09T04:51:03.589Z,95482.75
2023-01-09T04:53:29.884Z,95485.25
2023-01-09T04:55:56.192Z,95486.25
2023-01-09T04:58:22.487Z,95492.63
2023-01-09T05:00:48.795Z,95491.06
2023-01-09T05:03:15.134Z,95495.47
2023-01-09T05:05:41.447Z,95485.25
2023-01-09T05:08:07.743Z,95504.19
2023-01-09T05:10:37.220Z,95504.31
2023-01-09T05:13:03.519Z,95503.63
2023-01-09T05:15:29.811Z,95501.56
2023-01-09T05:17:56.123Z,95500.44
2023-01-09T05:20:22.429Z,95497.19
2023-01-09T05:22:48.719Z,95494.97
2023-01-09T05:25:15.040Z,95500.72
2023-01-09T05:27:41.329Z,95498.72
2023-01-09T05:30:07.614Z,95486.78
2023-01-09T05:32:33.985Z,95494.56
2023-01-09T05:35:00.281Z,95495.63
2023-01-09T05:37:26.588Z,95496.81
2023-01-09T05:39:52.893Z,95500.09
2023-01-09T05:42:19.210Z,95498.16
2023-01-09T05:44:45.502Z,95493.41
2023-01-09T05:47:11.826Z,95497.31
2023-01-09T05:49:38.122Z,95495.75
2023-01-09T05:52:04.409Z,95493.00
2023-01-09T05:54:30.757Z,95487.22
2023-01-09T05:56:57.054Z,95497.63
2023-01-09T05:59:23.358Z,95495.94
2023-01-09T06:01:49.698Z,95510.03
2023-01-09T06:04:15.997Z,95502.38
2023-01-09T06:06:42.299Z,95502.56
2023-01-09T06:09:08.622Z,95502.38
2023-01-09T06:11:35.021Z,95505.47
2023-01-09T06:14:01.347Z,95510.06
2023-01-09T06:16:27.659Z,95512.84
2023-01-09T06:18:53.960Z,95507.16
2023-01-09T06:21:20.247Z,95515.03
2023-01-09T06:23:46.568Z,95518.44
2023-01-09T06:26:12.865Z,95517.28
2023-01-09T06:28:39.154Z,95509.56
2023-01-09T06:31:05.544Z,95503.75
2023-01-09T06:33:31.871Z,95511.06
2023-01-09T06:35:58.154Z,95503.59
2023-01-09T06:38:24.492Z,95503.25
2023-01-09T06:40:50.798Z,95497.59
2023-01-09T06:43:17.094Z,95490.28
2023-01-09T06:45:43.446Z,95482.53
2023-01-09T06:48:09.746Z,95481.25
2023-01-09T06:50:36.043Z,95480.91
2023-01-09T06:53:02.364Z,95488.81
2023-01-09T06:55:28.657Z,95482.41
2023-01-09T06:57:54.958Z,95479.34
2023-01-09T07:00:21.281Z,95483.13
2023-01-09T07:02:47.561Z,95493.41
2023-01-09T07:05:13.866Z,95484.81
2023-01-09T07:07:40.201Z,95480.84
2023-01-09T07:10:06.497Z,95494.06
2023-01-09T07:12:32.788Z,95490.50
2023-01-09T07:14:59.107Z,95487.66
2023-01-09T07:17:25.404Z,95488.94
2023-01-09T07:19:51.703Z,95495.09
2023-01-09T07:22:18.014Z,95499.38
2023-01-09T07:24:44.334Z,95498.31
2023-01-09T07:27:10.665Z,95499.31
2023-01-09T07:29:36.988Z,95514.69
2023-01-09T07:32:03.281Z,95519.78
2023-01-09T07:34:29.583Z,95518.72
2023-01-09T07:36:55.908Z,95520.53
2023-01-09T07:39:22.216Z,95526.09
2023-01-09T07:41:49.608Z,95518.38
2023-01-09T07:44:15.953Z,95517.50
2023-01-09T07:46:42.241Z,95502.00
2023-01-09T07:49:08.544Z,95502.75
2023-01-09T07:51:34.870Z,95508.78
2023-01-09T07:54:01.163Z,95510.72
2023-01-09T07:56:27.472Z,95507.09
2023-01-09T07:58:53.792Z,95506.88
2023-01-09T08:01:20.216Z,95504.72
2023-01-09T08:03:46.556Z,95508.44
2023-01-09T08:06:12.877Z,95505.34
2023-01-09T08:08:39.174Z,95512.63
2023-01-09T08:11:05.465Z,95509.53
2023-01-09T08:13:31.795Z,95512.53
2023-01-09T08:15:58.198Z,95520.69
2023-01-09T08:18:24.523Z,95520.75
2023-01-09T08:20:50.836Z,95527.56
2023-01-09T08:23:17.125Z,95510.91
2023-01-09T08:25:43.428Z,95512.78
2023-01-09T08:28:09.818Z,95507.84
2023-01-09T08:30:36.122Z,95510.38
2023-01-09T08:33:02.405Z,95495.78
2023-01-09T08:35:28.708Z,95502.56
2023-01-09T08:37:54.985Z,95482.19
2023-01-09T08:40:21.264Z,95483.16
2023-01-09T08:42:47.568Z,95467.63
2023-01-09T08:45:13.854Z,95469.19
2023-01-09T08:47:40.159Z,95454.94
2023-01-09T08:50:06.495Z,95455.38
2023-01-09T08:52:32.781Z,95476.28
2023-01-09T08:54:59.116Z,95467.84
2023-01-09T08:57:25.440Z,95466.84
2023-01-09T08:59:51.725Z,95471.72
2023-01-09T09:02:18.006Z,95462.06
2023-01-09T09:04:44.299Z,95462.91
2023-01-09T09:07:10.598Z,95469.63
2023-01-09T09:09:36.879Z,95460.00
2023-01-09T09:12:03.201Z,95474.63
2023-01-09T09:14:29.517Z,95461.34
2023-01-09T09:16:55.822Z,95466.06
2023-01-09T09:19:22.143Z,95467.00
2023-01-09T09:21:48.449Z,95475.75
2023-01-09T09:24:14.767Z,95479.13
2023-01-09T09:26:42.666Z,95475.03
2023-01-09T09:29:10.046Z,95490.91
2023-01-09T09:31:36.390Z,95501.19
2023-01-09T09:34:02.737Z,95506.59
2023-01-09T09:36:29.033Z,95502.53
2023-01-09T09:38:55.346Z,95502.44
2023-01-09T09:41:21.679Z,95513.59
2023-01-09T09:43:48.010Z,95506.66
2023-01-09T09:46:14.344Z,95512.66
2023-01-09T09:48:40.693Z,95510.09
2023-01-09T09:51:06.991Z,95523.50
2023-01-09T09:53:33.310Z,95531.53
2023-01-09T09:55:59.679Z,95537.13
2023-01-09T09:58:25.988Z,95524.25
2023-01-09T10:00:52.301Z,95530.06
2023-01-09T10:03:26.188Z,95533.66
2023-01-09T10:05:59.438Z,95542.56
2023-01-09T10:08:25.778Z,95535.91
2023-01-09T10:10:52.082Z,95534.09
2023-01-09T10:13:18.376Z,95542.44
2023-01-09T10:15:44.717Z,95536.03
2023-01-09T10:18:11.039Z,95532.09
2023-01-09T10:20:37.373Z,95528.13
2023-01-09T10:23:03.698Z,95530.03
2023-01-09T10:25:29.999Z,95536.97
2023-01-09T10:27:56.355Z,95528.31
2023-01-09T10:30:22.682Z,95539.22
2023-01-09T10:32:48.982Z,95535.63
2023-01-09T10:35:15.287Z,95534.63
2023-01-09T10:37:41.609Z,95520.03
2023-01-09T10:40:07.906Z,95519.72
2023-01-09T10:42:34.189Z,95524.16
2023-01-09T10:45:00.516Z,95516.22
2023-01-09T10:47:26.803Z,95508.13
2023-01-09T10:49:53.105Z,95510.28
2023-01-09T10:52:19.430Z,95512.63
2023-01-09T10:54:45.768Z,95510.44
2023-01-09T10:57:12.046Z,95509.75
2023-01-09T10:59:38.420Z,95512.53
2023-01-09T11:02:04.726Z,95517.72
2023-01-09T11:04:31.285Z,95517.50
2023-01-09T11:06:57.668Z,95507.88
2023-01-09T11:09:24.298Z,95510.00
2023-01-09T11:11:52.707Z,95519.13
2023-01-09T11:14:19.163Z,95509.50
2023-01-09T11:16:45.457Z,95512.53
2023-01-09T11:19:11.743Z,95515.63
2023-01-09T11:21:38.083Z,95514.16
2023-01-09T11:24:04.403Z,95513.59
2023-01-09T11:26:30.685Z,95513.03
2023-01-09T11:28:57.060Z,95511.66
2023-01-09T11:31:23.440Z,95506.50
2023-01-09T11:33:49.744Z,95508.47
2023-01-09T11:36:16.144Z,95498.09
2023-01-09T11:38:42.430Z,95500.44
2023-01-09T11:41:08.741Z,95503.63
2023-01-09T11:43:35.074Z,95506.56
2023-01-09T11:46:02.052Z,95498.72
2023-01-09T11:48:28.488Z,95489.69
2023-01-09T11:50:54.791Z,95485.63
2023-01-09T11:53:21.077Z,95491.47
2023-01-09T11:55:47.359Z,95496.22
2023-01-09T11:58:13.699Z,95483.66
2023-01-09T12:00:39.981Z,95487.59
2023-01-09T12:03:06.300Z,95489.06
2023-01-09T12:05:32.695Z,95488.72
2023-01-09T12:07:59.044Z,95489.72
2023-01-09T12:10:25.583Z,95488.34
2023-01-09T12:12:51.919Z,95493.63
2023-01-09T12:15:18.222Z,95483.41
2023-01-09T12:17:44.513Z,95492.19
2023-01-09T12:20:10.840Z,95493.97
2023-01-09T12:22:37.134Z,95487.22
2023-01-09T12:25:03.436Z,95493.75
2023-01-09T12:27:29.753Z,95487.91
2023-01-09T12:29:56.120Z,95488.81
2023-01-09T12:32:22.434Z,95484.13
2023-01-09T12:34:48.737Z,95483.41
2023-01-09T12:37:15.048Z,95489.22
2023-01-09T12:39:42.617Z,95484.81
2023-01-09T12:42:08.930Z,95498.66
2023-01-09T12:44:36.452Z,95489.97
2023-01-09T12:47:03.004Z,95504.63
2023-01-09T12:49:29.337Z,95508.19
2023-01-09T12:51:55.638Z,95510.75
2023-01-09T12:54:21.982Z,95513.81
2023-01-09T12:56:48.286Z,95502.50
2023-01-09T12:59:14.579Z,95507.22
2023-01-09T13:01:40.876Z,95510.94
2023-01-09T13:04:07.214Z,95507.09
2023-01-09T13:06:33.489Z,95517.72
2023-01-09T13:08:59.770Z,95520.53
2023-01-09T13:11:26.126Z,95519.06
2023-01-09T13:13:52.434Z,95510.44
2023-01-09T13:16:18.748Z,95511.19
2023-01-09T13:18:45.186Z,95517.06
2023-01-09T13:21:11.493Z,95529.34
2023-01-09T13:23:37.798Z,95529.59
2023-01-09T13:26:04.137Z,95532.00
2023-01-09T13:28:30.421Z,95536.97
2023-01-09T13:30:58.653Z,95540.44
2023-01-09T13:33:25.121Z,95527.84
2023-01-09T13:35:51.437Z,95529.81
2023-01-09T13:38:17.736Z,95522.41
2023-01-09T13:40:44.052Z,95526.00
2023-01-09T13:43:10.361Z,95534.06
2023-01-09T13:45:36.690Z,95533.25
2023-01-09T13:48:03.077Z,95535.25
2023-01-09T13:50:29.379Z,95538.00
2023-01-09T13:52:55.700Z,95528.75
2023-01-09T13:55:22.011Z,95522.31
2023-01-09T13:57:48.300Z,95520.53
2023-01-09T14:00:14.622Z,95529.59
2023-01-09T14:02:40.961Z,95528.75
2023-01-09T14:05:07.253Z,95534.53
2023-01-09T14:07:33.538Z,95529.28
2023-01-09T14:09:59.868Z,95542.34
2023-01-09T14:12:26.169Z,95547.72
2023-01-09T14:14:52.473Z,95556.84
2023-01-09T14:17:18.834Z,95549.84
2023-01-09T14:19:45.115Z,95557.63
2023-01-09T14:22:11.411Z,95570.81
2023-01-09T14:24:37.737Z,95576.09
2023-01-09T14:27:04.057Z,95560.31
2023-01-09T14:29:30.363Z,95582.19
2023-01-09T14:31:56.714Z,95584.72
2023-01-09T14:34:31.210Z,95586.84
2023-01-09T14:36:57.981Z,95598.59
2023-01-09T14:39:24.273Z,95595.69
2023-01-09T14:41:50.568Z,95602.16
2023-01-09T14:44:16.863Z,95606.84
2023-01-09T14:46:43.154Z,95606.06
2023-01-09T14:49:09.442Z,95613.75
2023-01-09T14:51:35.775Z,95607.41
2023-01-09T14:54:02.092Z,95612.66
2023-01-09T14:56:28.409Z,95607.53
2023-01-09T14:58:54.734Z,95610.59
2023-01-09T15:01:21.121Z,95635.72
2023-01-09T15:03:47.424Z,95634.47
2023-01-09T15:06:13.818Z,95637.72
2023-01-09T15:08:40.112Z,95647.88
2023-01-09T15:11:06.401Z,95647.47
2023-01-09T15:13:32.722Z,95653.50
2023-01-09T15:15:59.023Z,95659.19
2023-01-09T15:18:25.301Z,95664.13
2023-01-09T15:20:51.634Z,95685.81
2023-01-09T15:23:17.921Z,95675.41
2023-01-09T15:25:44.220Z,95681.84
2023-01-09T15:28:10.564Z,95681.31
2023-01-09T15:30:36.857Z,95684.13
2023-01-09T15:33:03.135Z,95690.78
2023-01-09T15:35:29.451Z,95703.25
2023-01-09T15:37:55.754Z,95706.75
2023-01-09T15:40:22.071Z,95713.63
2023-01-09T15:42:48.392Z,95712.63
2023-01-09T15:45:14.698Z,95726.09
2023-01-09T15:47:41.001Z,95731.44
2023-01-09T15:50:07.415Z,95739.31
2023-01-09T15:52:33.720Z,95748.78
2023-01-09T15:55:00.022Z,95758.97
2023-01-09T15:57:26.372Z,95759.28
2023-01-09T15:59:52.681Z,95763.88
2023-01-09T16:02:19.056Z,95768.31
2023-01-09T16:04:45.431Z,95768.25
2023-01-09T16:07:11.748Z,95769.97
2023-01-09T16:09:38.106Z,95792.06
2023-01-09T16:12:04.406Z,95790.16
2023-01-09T16:14:30.713Z,95800.41
2023-01-09T16:16:57.008Z,95796.81
2023-01-09T16:19:23.324Z,95798.50
2023-01-09T16:21:49.619Z,95792.91
2023-01-09T16:24:15.927Z,95801.13
2023-01-09T16:26:42.295Z,95811.97
2023-01-09T16:29:08.589Z,95818.69
2023-01-09T16:31:35.199Z,95815.94
2023-01-09T16:34:01.630Z,95823.31
2023-01-09T16:36:28.279Z,95834.63
2023-01-09T16:38:54.639Z,95843.88
2023-01-09T16:41:20.978Z,95854.28
2023-01-09T16:43:47.279Z,95852.72
2023-01-09T16:46:13.632Z,95856.28
2023-01-09T16:48:39.970Z,95867.78
2023-01-09T16:51:06.269Z,95871.28
2023-01-09T16:53:32.563Z,95877.63
2023-01-09T16:55:58.877Z,95882.38
2023-01-09T16:58:25.173Z,95869.75
2023-01-09T17:00:51.530Z,95861.47
2023-01-09T17:03:17.875Z,95859.91
2023-01-09T17:05:44.181Z,95845.47
2023-01-09T17:08:10.490Z,95857.22
2023-01-09T17:10:36.826Z,95863.53
2023-01-09T17:13:03.127Z,95848.88
2023-01-09T17:15:31.211Z,95858.38
2023-01-09T17:17:58.695Z,95866.34
2023-01-09T17:20:25.382Z,95878.66
2023-01-09T17:22:51.727Z,95862.59
2023-01-09T17:25:18.039Z,95883.09
2023-01-09T17:27:44.344Z,95877.44
2023-01-09T17:30:18.890Z,95886.09
2023-01-09T17:32:45.705Z,95890.38
2023-01-09T17:35:12.006Z,95897.06
2023-01-09T17:37:38.305Z,95904.88
2023-01-09T17:40:04.624Z,95907.59
2023-01-09T17:42:30.936Z,95920.38
2023-01-09T17:44:57.255Z,95919.13
2023-01-09T17:47:23.557Z,95931.00
2023-01-09T17:49:49.850Z,95938.88
2023-01-09T17:52:16.145Z,95935.66
2023-01-09T17:54:42.467Z,95935.34
2023-01-09T17:57:08.761Z,95945.88
2023-01-09T17:59:35.071Z,95943.09
2023-01-09T18:02:01.446Z,95947.88
2023-01-09T18:04:27.756Z,95958.63
2023-01-09T18:06:54.061Z,95951.22
2023-01-09T18:09:20.393Z,95962.91
2023-01-09T18:11:46.703Z,95964.13
2023-01-09T18:14:13.921Z,95978.69
2023-01-09T18:16:40.448Z,95989.31
2023-01-09T18:19:06.779Z,95980.31
2023-01-09T18:21:33.091Z,95988.13
2023-01-09T18:23:59.423Z,95984.56
2023-01-09T18:26:25.712Z,95973.97
2023-01-09T18:28:52.001Z,95966.81
2023-01-09T18:31:20.339Z,95959.66
2023-01-09T18:33:46.660Z,95970.78
2023-01-09T18:36:13.055Z,95966.00
2023-01-09T18:38:39.401Z,95981.88
2023-01-09T18:41:05.702Z,95972.72
2023-01-09T18:43:32.008Z,95969.22
2023-01-09T18:45:58.388Z,95983.28
2023-01-09T18:48:24.706Z,95984.06
2023-01-09T18:50:51.000Z,95995.06
2023-01-09T18:53:17.311Z,96006.78
2023-01-09T18:55:43.593Z,96015.78
2023-01-09T18:58:09.896Z,96012.00
2023-01-09T19:00:36.221Z,96022.88
2023-01-09T19:03:02.525Z,96017.84
2023-01-09T19:05:28.840Z,96020.88
2023-01-09T19:07:55.619Z,96028.38
2023-01-09T19:10:21.961Z,96037.91
2023-01-09T19:12:48.242Z,96035.84
2023-01-09T19:15:14.550Z,96060.44
2023-01-09T19:17:40.850Z,96056.88
2023-01-09T19:20:09.097Z,96047.91
2023-01-09T19:22:35.420Z,96058.56
2023-01-09T19:25:01.719Z,96064.16
2023-01-09T19:27:28.026Z,96051.06
2023-01-09T19:29:54.361Z,96056.13
2023-01-09T19:32:20.679Z,96058.97
2023-01-09T19:34:46.963Z,96062.19
2023-01-09T19:37:13.383Z,96068.88
2023-01-09T19:39:39.711Z,96075.28
2023-01-09T19:42:06.017Z,96069.72
2023-01-09T19:44:32.383Z,96078.47
2023-01-09T19:46:58.791Z,96076.91
2023-01-09T19:49:25.099Z,96070.22
2023-01-09T19:51:51.413Z,96073.34
2023-01-09T19:54:17.706Z,96081.25
2023-01-09T19:56:44.019Z,96074.56
2023-01-09T19:59:10.348Z,96084.41
2023-01-09T20:01:36.717Z,96076.94
2023-01-09T20:04:03.036Z,96074.97
2023-01-09T20:06:29.358Z,96075.69
2023-01-09T20:08:55.654Z,96078.06
2023-01-09T20:11:21.965Z,96084.06
2023-01-09T20:13:48.320Z,96075.41
2023-01-09T20:16:14.669Z,96091.19
2023-01-09T20:18:40.993Z,96089.59
2023-01-09T20:21:07.316Z,96090.00
2023-01-09T20:23:33.607Z,96104.56
2023-01-09T20:26:00.099Z,96111.25
2023-01-09T20:28:26.480Z,96122.66
2023-01-09T20:30:52.782Z,96140.81
2023-01-09T20:33:19.081Z,96132.16
2023-01-09T20:35:45.411Z,96108.50
2023-01-09T20:38:11.748Z,96090.72
2023-01-09T20:40:38.037Z,96093.56
2023-01-09T20:43:04.355Z,96094.72
2023-01-09T20:45:30.695Z,96091.56
2023-01-09T20:47:57.026Z,96099.47
2023-01-09T20:50:23.384Z,96100.69
2023-01-09T20:52:49.683Z,96098.69
2023-01-09T20:55:15.982Z,96090.41
2023-01-09T20:57:42.286Z,96105.00
2023-01-09T21:00:08.585Z,96105.00
2023-01-09T21:02:34.891Z,96101.06
2023-01-09T21:05:01.208Z,96097.91
2023-01-09T21:07:27.494Z,96100.28
2023-01-09T21:09:53.786Z,96108.13
2023-01-09T21:12:20.120Z,96106.94
2023-01-09T21:14:46.402Z,96114.44
2023-01-09T21:17:12.709Z,96103.81
2023-01-09T21:19:39.040Z,96105.41
2023-01-09T21:22:05.347Z,96099.47
2023-01-09T21:24:31.632Z,96101.84
2023-01-09T21:26:57.955Z,96105.38
2023-01-09T21:29:24.241Z,96107.28
2023-01-09T21:31:50.598Z,96115.19
2023-01-09T21:34:16.951Z,96130.16
2023-01-09T21:36:43.260Z,96115.22
2023-01-09T21:39:09.583Z,96124.25
2023-01-09T21:41:35.945Z,96135.31
2023-01-09T21:44:02.237Z,96144.75
2023-01-09T21:46:28.586Z,96151.81
2023-01-09T21:48:54.903Z,96167.16
2023-01-09T21:51:21.210Z,96171.81
2023-01-09T21:53:47.521Z,96172.22
2023-01-09T21:56:13.886Z,96157.59
2023-01-09T21:58:40.210Z,96160.84
2023-01-09T22:01:06.559Z,96160.09
2023-01-09T22:03:32.923Z,96173.13
2023-01-09T22:05:59.215Z,96186.53
2023-01-09T22:08:25.507Z,96188.47
2023-01-09T22:10:51.836Z,96203.88
2023-01-09T22:13:18.150Z,96224.34
2023-01-09T22:15:44.547Z,96227.50
2023-01-09T22:18:10.862Z,96244.88
2023-01-09T22:20:37.182Z,96244.47
2023-01-09T22:23:03.489Z,96248.41
2023-01-09T22:25:29.800Z,96246.03
2023-01-09T22:27:56.093Z,96258.66
2023-01-09T22:30:22.410Z,96277.19
2023-01-09T22:32:48.723Z,96287.81
2023-01-09T22:35:15.015Z,96290.13
2023-01-09T22:37:41.324Z,96295.28
2023-01-09T22:40:07.646Z,96313.78
2023-01-09T22:42:33.952Z,96314.22
2023-01-09T22:45:00.246Z,96309.88
2023-01-09T22:47:26.563Z,96321.31
2023-01-09T22:49:53.636Z,96324.88
2023-01-09T22:52:20.256Z,96322.50
2023-01-09T22:54:46.641Z,96325.28
2023-01-09T22:57:12.939Z,96320.13
2023-01-09T22:59:39.224Z,96320.13
2023-01-09T23:02:05.715Z,96341.44
2023-01-09T23:04:32.101Z,96336.28
2023-01-09T23:06:58.404Z,96345.41
2023-01-09T23:09:24.722Z,96361.56
2023-01-09T23:11:51.027Z,96354.06
2023-01-09T23:14:17.314Z,96354.44
2023-01-09T23:16:43.652Z,96338.28
2023-01-09T23:19:10.031Z,96335.09
2023-01-09T23:21:36.364Z,96351.25
2023-01-09T23:24:02.696Z,96344.94
2023-01-09T23:26:29.013Z,96338.63
2023-01-09T23:28:55.319Z,96357.16
2023-01-09T23:31:21.659Z,96350.09
2023-01-09T23:33:47.981Z,96343.78
2023-01-09T23:36:14.270Z,96346.53
2023-01-09T23:38:40.579Z,96340.59
2023-01-09T23:41:06.865Z,96351.69
2023-01-09T23:43:33.158Z,96357.19
2023-01-09T23:45:59.535Z,96343.00
2023-01-09T23:48:25.859Z,96375.31
2023-01-09T23:50:52.148Z,96366.63
2023-01-09T23:53:18.469Z,96363.47
2023-01-09T23:55:44.768Z,96357.94
2023-01-09T23:58:11.051Z,96349.34
